sensor_id;sensor_type;location;lat;lon;timestamp;temperature;humidity
37342;DHT22;58643;49.052;8.518;2023-04-03T00:01:13;5.40;99.90
37342;DHT22;58643;49.052;8.518;2023-04-03T00:03:39;5.20;99.90
37342;DHT22;58643;49.052;8.518;2023-04-03T00:06:05;5.30;99.90
37342;DHT22;58643;49.052;8.518;2023-04-03T00:08:32;5.20;99.90
37342;DHT22;58643;49.052;8.518;2023-04-03T00:10:58;5.40;99.90
37342;DHT22;58643;49.052;8.518;2023-04-03T00:13:23;5.30;99.90
37342;DHT22;58643;49.052;8.518;2023-04-03T00:15:49;5.30;99.90
37342;DHT22;58643;49.052;8.518;2023-04-03T00:18:15;5.30;99.90
37342;DHT22;58643;49.052;8.518;2023-04-03T00:20:40;5.30;99.90
37342;DHT22;58643;49.052;8.518;2023-04-03T00:23:06;5.20;99.90
37342;DHT22;58643;49.052;8.518;2023-04-03T00:25:32;5.20;99.90
37342;DHT22;58643;49.052;8.518;2023-04-03T00:27:58;5.20;99.90
37342;DHT22;58643;49.052;8.518;2023-04-03T00:30:24;5.00;99.90
37342;DHT22;58643;49.052;8.518;2023-04-03T00:32:51;5.10;99.90
37342;DHT22;58643;49.052;8.518;2023-04-03T00:35:18;5.20;99.90
37342;DHT22;58643;49.052;8.518;2023-04-03T00:37:44;5.10;99.90
37342;DHT22;58643;49.052;8.518;2023-04-03T00:40:12;5.20;99.90
37342;DHT22;58643;49.052;8.518;2023-04-03T00:42:40;5.00;99.90
37342;DHT22;58643;49.052;8.518;2023-04-03T00:47:39;5.10;99.90
37342;DHT22;58643;49.052;8.518;2023-04-03T00:50:06;5.10;99.90
37342;DHT22;58643;49.052;8.518;2023-04-03T00:52:32;5.20;99.90
37342;DHT22;58643;49.052;8.518;2023-04-03T00:55:02;5.00;99.90
37342;DHT22;58643;49.052;8.518;2023-04-03T00:57:30;5.10;99.90
37342;DHT22;58643;49.052;8.518;2023-04-03T01:00:02;4.90;99.90
37342;DHT22;58643;49.052;8.518;2023-04-03T01:02:28;5.30;99.90
37342;DHT22;58643;49.052;8.518;2023-04-03T01:04:54;6.20;99.90
37342;DHT22;58643;49.052;8.518;2023-04-03T01:07:23;5.10;99.90
37342;DHT22;58643;49.052;8.518;2023-04-03T01:09:53;5.10;99.90
37342;DHT22;58643;49.052;8.518;2023-04-03T01:12:27;5.00;99.90
37342;DHT22;58643;49.052;8.518;2023-04-03T01:14:56;5.00;99.90
37342;DHT22;58643;49.052;8.518;2023-04-03T01:17:32;5.00;99.90
37342;DHT22;58643;49.052;8.518;2023-04-03T01:25:51;4.90;99.90
37342;DHT22;58643;49.052;8.518;2023-04-03T01:28:22;4.90;99.90
37342;DHT22;58643;49.052;8.518;2023-04-03T01:34:08;4.70;99.90
37342;DHT22;58643;49.052;8.518;2023-04-03T01:36:33;4.70;99.90
37342;DHT22;58643;49.052;8.518;2023-04-03T01:39:00;4.80;99.90
37342;DHT22;58643;49.052;8.518;2023-04-03T01:41:26;5.30;99.90
37342;DHT22;58643;49.052;8.518;2023-04-03T01:43:52;4.60;99.90
37342;DHT22;58643;49.052;8.518;2023-04-03T01:46:18;4.80;99.90
37342;DHT22;58643;49.052;8.518;2023-04-03T01:48:44;4.70;99.90
37342;DHT22;58643;49.052;8.518;2023-04-03T01:51:10;4.60;99.90
37342;DHT22;58643;49.052;8.518;2023-04-03T01:53:36;4.60;99.90
37342;DHT22;58643;49.052;8.518;2023-04-03T01:56:01;4.50;99.90
37342;DHT22;58643;49.052;8.518;2023-04-03T01:58:27;4.50;99.90
37342;DHT22;58643;49.052;8.518;2023-04-03T02:00:53;4.40;99.90
37342;DHT22;58643;49.052;8.518;2023-04-03T02:03:19;4.30;99.90
37342;DHT22;58643;49.052;8.518;2023-04-03T02:05:44;4.10;99.90
37342;DHT22;58643;49.052;8.518;2023-04-03T02:08:11;4.20;99.90
37342;DHT22;58643;49.052;8.518;2023-04-03T02:10:38;4.10;99.90
37342;DHT22;58643;49.052;8.518;2023-04-03T02:13:03;6.10;99.90
37342;DHT22;58643;49.052;8.518;2023-04-03T02:15:29;4.10;99.90
37342;DHT22;58643;49.052;8.518;2023-04-03T02:17:54;4.10;99.90
37342;DHT22;58643;49.052;8.518;2023-04-03T02:20:20;4.10;99.90
37342;DHT22;58643;49.052;8.518;2023-04-03T02:22:46;4.10;99.90
37342;DHT22;58643;49.052;8.518;2023-04-03T02:25:12;3.90;99.90
37342;DHT22;58643;49.052;8.518;2023-04-03T02:27:38;3.90;99.90
37342;DHT22;58643;49.052;8.518;2023-04-03T02:30:04;3.60;99.90
37342;DHT22;58643;49.052;8.518;2023-04-03T02:32:30;3.70;99.90
37342;DHT22;58643;49.052;8.518;2023-04-03T02:34:56;3.60;99.90
37342;DHT22;58643;49.052;8.518;2023-04-03T02:37:22;3.60;99.90
37342;DHT22;58643;49.052;8.518;2023-04-03T02:39:47;3.50;99.90
37342;DHT22;58643;49.052;8.518;2023-04-03T02:42:13;3.60;99.90
37342;DHT22;58643;49.052;8.518;2023-04-03T02:44:39;3.40;99.90
37342;DHT22;58643;49.052;8.518;2023-04-03T02:47:04;3.50;99.90
37342;DHT22;58643;49.052;8.518;2023-04-03T02:49:31;3.50;99.90
37342;DHT22;58643;49.052;8.518;2023-04-03T02:51:57;3.20;99.90
37342;DHT22;58643;49.052;8.518;2023-04-03T02:54:22;3.40;99.90
37342;DHT22;58643;49.052;8.518;2023-04-03T02:56:50;3.40;99.90
37342;DHT22;58643;49.052;8.518;2023-04-03T02:59:15;3.40;99.90
37342;DHT22;58643;49.052;8.518;2023-04-03T03:01:41;3.30;99.90
37342;DHT22;58643;49.052;8.518;2023-04-03T03:04:07;3.40;99.90
37342;DHT22;58643;49.052;8.518;2023-04-03T03:06:32;3.40;99.90
37342;DHT22;58643;49.052;8.518;2023-04-03T03:08:58;3.40;99.90
37342;DHT22;58643;49.052;8.518;2023-04-03T03:11:23;2.70;99.90
37342;DHT22;58643;49.052;8.518;2023-04-03T03:13:50;3.40;99.90
37342;DHT22;58643;49.052;8.518;2023-04-03T03:16:15;3.50;99.90
37342;DHT22;58643;49.052;8.518;2023-04-03T03:18:41;3.50;99.90
37342;DHT22;58643;49.052;8.518;2023-04-03T03:21:08;3.50;99.90
37342;DHT22;58643;49.052;8.518;2023-04-03T03:23:34;3.50;99.90
37342;DHT22;58643;49.052;8.518;2023-04-03T03:26:06;3.50;99.90
37342;DHT22;58643;49.052;8.518;2023-04-03T03:28:33;3.60;99.90
37342;DHT22;58643;49.052;8.518;2023-04-03T03:30:59;3.60;99.90
37342;DHT22;58643;49.052;8.518;2023-04-03T03:33:26;3.70;99.90
37342;DHT22;58643;49.052;8.518;2023-04-03T03:35:53;3.70;99.90
37342;DHT22;58643;49.052;8.518;2023-04-03T03:38:19;3.80;99.90
37342;DHT22;58643;49.052;8.518;2023-04-03T03:40:44;3.80;99.90
37342;DHT22;58643;49.052;8.518;2023-04-03T03:43:11;3.60;99.90
37342;DHT22;58643;49.052;8.518;2023-04-03T03:45:37;4.10;99.90
37342;DHT22;58643;49.052;8.518;2023-04-03T03:48:04;3.70;99.90
37342;DHT22;58643;49.052;8.518;2023-04-03T03:50:29;4.00;99.90
37342;DHT22;58643;49.052;8.518;2023-04-03T03:52:55;3.80;99.90
37342;DHT22;58643;49.052;8.518;2023-04-03T03:55:21;3.90;99.90
37342;DHT22;58643;49.052;8.518;2023-04-03T03:57:47;3.90;99.90
37342;DHT22;58643;49.052;8.518;2023-04-03T04:00:13;3.90;99.90
37342;DHT22;58643;49.052;8.518;2023-04-03T04:02:39;3.80;99.90
37342;DHT22;58643;49.052;8.518;2023-04-03T04:05:04;4.00;99.90
37342;DHT22;58643;49.052;8.518;2023-04-03T04:07:30;4.00;99.90
37342;DHT22;58643;49.052;8.518;2023-04-03T04:09:56;5.50;99.90
37342;DHT22;58643;49.052;8.518;2023-04-03T04:12:21;4.20;99.90
37342;DHT22;58643;49.052;8.518;2023-04-03T04:14:47;4.00;99.90
37342;DHT22;58643;49.052;8.518;2023-04-03T04:17:14;4.00;99.90
37342;DHT22;58643;49.052;8.518;2023-04-03T04:19:40;4.10;99.90
37342;DHT22;58643;49.052;8.518;2023-04-03T04:22:05;4.10;99.90
37342;DHT22;58643;49.052;8.518;2023-04-03T04:24:31;4.10;99.90
37342;DHT22;58643;49.052;8.518;2023-04-03T04:26:56;4.10;99.90
37342;DHT22;58643;49.052;8.518;2023-04-03T04:29:22;4.10;99.90
37342;DHT22;58643;49.052;8.518;2023-04-03T04:31:48;4.20;99.90
37342;DHT22;58643;49.052;8.518;2023-04-03T04:34:14;4.20;99.90
37342;DHT22;58643;49.052;8.518;2023-04-03T04:36:40;4.20;99.90
37342;DHT22;58643;49.052;8.518;2023-04-03T04:39:06;4.10;99.90
37342;DHT22;58643;49.052;8.518;2023-04-03T04:41:31;4.00;99.90
37342;DHT22;58643;49.052;8.518;2023-04-03T04:43:57;4.00;99.90
37342;DHT22;58643;49.052;8.518;2023-04-03T04:46:23;4.10;99.90
37342;DHT22;58643;49.052;8.518;2023-04-03T04:48:48;3.80;99.90
37342;DHT22;58643;49.052;8.518;2023-04-03T04:51:15;3.60;99.90
37342;DHT22;58643;49.052;8.518;2023-04-03T04:53:41;3.40;99.90
37342;DHT22;58643;49.052;8.518;2023-04-03T04:56:07;3.40;99.90
37342;DHT22;58643;49.052;8.518;2023-04-03T04:58:33;3.50;99.90
37342;DHT22;58643;49.052;8.518;2023-04-03T05:01:00;5.20;99.90
37342;DHT22;58643;49.052;8.518;2023-04-03T05:03:25;5.40;99.90
37342;DHT22;58643;49.052;8.518;2023-04-03T05:05:51;3.40;99.90
37342;DHT22;58643;49.052;8.518;2023-04-03T05:08:17;4.50;99.90
37342;DHT22;58643;49.052;8.518;2023-04-03T05:10:42;2.90;99.90
37342;DHT22;58643;49.052;8.518;2023-04-03T05:13:09;3.00;99.90
37342;DHT22;58643;49.052;8.518;2023-04-03T05:15:35;3.00;99.90
37342;DHT22;58643;49.052;8.518;2023-04-03T05:18:00;3.00;99.90
37342;DHT22;58643;49.052;8.518;2023-04-03T05:20:26;3.00;99.90
37342;DHT22;58643;49.052;8.518;2023-04-03T05:22:52;3.00;99.90
37342;DHT22;58643;49.052;8.518;2023-04-03T05:25:17;4.20;99.90
37342;DHT22;58643;49.052;8.518;2023-04-03T05:27:43;2.90;99.90
37342;DHT22;58643;49.052;8.518;2023-04-03T05:30:09;2.90;99.90
37342;DHT22;58643;49.052;8.518;2023-04-03T05:32:35;2.70;99.90
37342;DHT22;58643;49.052;8.518;2023-04-03T05:35:00;2.70;99.90
37342;DHT22;58643;49.052;8.518;2023-04-03T05:37:27;2.70;99.90
37342;DHT22;58643;49.052;8.518;2023-04-03T05:39:52;2.90;99.90
37342;DHT22;58643;49.052;8.518;2023-04-03T05:42:18;2.90;99.90
37342;DHT22;58643;49.052;8.518;2023-04-03T05:44:44;3.10;99.90
37342;DHT22;58643;49.052;8.518;2023-04-03T05:47:11;3.10;99.90
37342;DHT22;58643;49.052;8.518;2023-04-03T05:49:36;3.20;99.90
37342;DHT22;58643;49.052;8.518;2023-04-03T05:52:06;3.40;99.90
37342;DHT22;58643;49.052;8.518;2023-04-03T05:54:34;3.40;99.90
37342;DHT22;58643;49.052;8.518;2023-04-03T05:57:00;3.60;99.90
37342;DHT22;58643;49.052;8.518;2023-04-03T05:59:25;3.60;99.90
37342;DHT22;58643;49.052;8.518;2023-04-03T06:01:51;3.50;99.90
37342;DHT22;58643;49.052;8.518;2023-04-03T06:04:17;3.70;99.90
37342;DHT22;58643;49.052;8.518;2023-04-03T06:06:52;3.70;99.90
37342;DHT22;58643;49.052;8.518;2023-04-03T06:09:19;3.90;99.90
37342;DHT22;58643;49.052;8.518;2023-04-03T06:11:45;3.90;99.90
37342;DHT22;58643;49.052;8.518;2023-04-03T06:14:11;5.70;99.90
37342;DHT22;58643;49.052;8.518;2023-04-03T06:16:37;4.00;99.90
37342;DHT22;58643;49.052;8.518;2023-04-03T06:19:03;4.10;99.90
37342;DHT22;58643;49.052;8.518;2023-04-03T06:21:29;4.20;99.90
37342;DHT22;58643;49.052;8.518;2023-04-03T06:23:55;4.20;99.90
37342;DHT22;58643;49.052;8.518;2023-04-03T06:26:21;4.90;99.90
37342;DHT22;58643;49.052;8.518;2023-04-03T06:28:47;5.50;99.90
37342;DHT22;58643;49.052;8.518;2023-04-03T06:31:13;4.30;99.90
37342;DHT22;58643;49.052;8.518;2023-04-03T06:33:38;4.60;99.90
37342;DHT22;58643;49.052;8.518;2023-04-03T06:36:05;4.20;99.90
37342;DHT22;58643;49.052;8.518;2023-04-03T06:38:32;4.40;99.90
37342;DHT22;58643;49.052;8.518;2023-04-03T06:40:58;4.40;99.90
37342;DHT22;58643;49.052;8.518;2023-04-03T06:43:24;4.70;99.90
37342;DHT22;58643;49.052;8.518;2023-04-03T06:45:50;4.60;99.90
37342;DHT22;58643;49.052;8.518;2023-04-03T06:48:16;6.20;99.90
37342;DHT22;58643;49.052;8.518;2023-04-03T06:50:42;4.80;99.90
37342;DHT22;58643;49.052;8.518;2023-04-03T06:53:08;4.90;99.90
37342;DHT22;58643;49.052;8.518;2023-04-03T06:55:35;4.80;99.90
37342;DHT22;58643;49.052;8.518;2023-04-03T06:58:01;5.00;99.90
37342;DHT22;58643;49.052;8.518;2023-04-03T07:00:27;4.90;99.90
37342;DHT22;58643;49.052;8.518;2023-04-03T07:02:53;5.10;99.90
37342;DHT22;58643;49.052;8.518;2023-04-03T07:05:19;6.20;99.90
37342;DHT22;58643;49.052;8.518;2023-04-03T07:07:45;5.20;99.90
37342;DHT22;58643;49.052;8.518;2023-04-03T07:10:11;5.50;99.90
37342;DHT22;58643;49.052;8.518;2023-04-03T07:12:37;6.70;99.90
37342;DHT22;58643;49.052;8.518;2023-04-03T07:15:06;5.70;99.90
37342;DHT22;58643;49.052;8.518;2023-04-03T07:17:32;5.40;99.90
37342;DHT22;58643;49.052;8.518;2023-04-03T07:19:58;5.40;99.90
37342;DHT22;58643;49.052;8.518;2023-04-03T07:22:23;5.30;99.90
37342;DHT22;58643;49.052;8.518;2023-04-03T07:24:49;5.30;99.90
37342;DHT22;58643;49.052;8.518;2023-04-03T07:27:14;5.80;99.90
37342;DHT22;58643;49.052;8.518;2023-04-03T07:29:40;5.60;99.90
37342;DHT22;58643;49.052;8.518;2023-04-03T07:32:06;5.70;99.90
37342;DHT22;58643;49.052;8.518;2023-04-03T07:34:32;5.70;99.90
37342;DHT22;58643;49.052;8.518;2023-04-03T07:36:58;7.00;99.90
37342;DHT22;58643;49.052;8.518;2023-04-03T07:39:25;7.20;99.90
37342;DHT22;58643;49.052;8.518;2023-04-03T07:41:51;5.80;99.90
37342;DHT22;58643;49.052;8.518;2023-04-03T07:44:17;6.50;99.90
37342;DHT22;58643;49.052;8.518;2023-04-03T07:46:43;5.90;99.90
37342;DHT22;58643;49.052;8.518;2023-04-03T07:49:08;5.80;99.90
37342;DHT22;58643;49.052;8.518;2023-04-03T07:51:34;7.90;99.90
37342;DHT22;58643;49.052;8.518;2023-04-03T07:54:01;6.10;99.90
37342;DHT22;58643;49.052;8.518;2023-04-03T07:56:26;6.10;99.90
37342;DHT22;58643;49.052;8.518;2023-04-03T07:58:52;6.40;99.90
37342;DHT22;58643;49.052;8.518;2023-04-03T08:01:19;8.60;99.90
37342;DHT22;58643;49.052;8.518;2023-04-03T08:03:44;6.30;99.90
37342;DHT22;58643;49.052;8.518;2023-04-03T08:06:10;6.40;99.90
37342;DHT22;58643;49.052;8.518;2023-04-03T08:08:36;7.20;99.90
37342;DHT22;58643;49.052;8.518;2023-04-03T08:11:02;5.00;99.90
37342;DHT22;58643;49.052;8.518;2023-04-03T08:13:31;7.90;99.90
37342;DHT22;58643;49.052;8.518;2023-04-03T08:15:56;6.90;99.90
37342;DHT22;58643;49.052;8.518;2023-04-03T08:18:23;7.70;99.90
37342;DHT22;58643;49.052;8.518;2023-04-03T08:20:51;8.00;99.90
37342;DHT22;58643;49.052;8.518;2023-04-03T08:23:17;7.00;99.90
37342;DHT22;58643;49.052;8.518;2023-04-03T08:25:44;7.00;99.90
37342;DHT22;58643;49.052;8.518;2023-04-03T08:28:11;8.60;99.90
37342;DHT22;58643;49.052;8.518;2023-04-03T08:30:40;7.20;99.90
37342;DHT22;58643;49.052;8.518;2023-04-03T08:33:06;7.40;99.90
37342;DHT22;58643;49.052;8.518;2023-04-03T08:35:32;7.60;99.90
37342;DHT22;58643;49.052;8.518;2023-04-03T08:37:58;7.80;99.90
37342;DHT22;58643;49.052;8.518;2023-04-03T08:40:24;7.90;99.90
37342;DHT22;58643;49.052;8.518;2023-04-03T08:45:53;8.10;99.90
37342;DHT22;58643;49.052;8.518;2023-04-03T08:48:24;9.10;99.90
37342;DHT22;58643;49.052;8.518;2023-04-03T08:50:54;8.60;99.90
37342;DHT22;58643;49.052;8.518;2023-04-03T08:53:27;8.70;99.90
37342;DHT22;58643;49.052;8.518;2023-04-03T08:55:55;8.80;99.90
37342;DHT22;58643;49.052;8.518;2023-04-03T08:58:26;9.00;99.90
37342;DHT22;58643;49.052;8.518;2023-04-03T09:01:05;9.20;99.90
37342;DHT22;58643;49.052;8.518;2023-04-03T09:03:36;9.20;99.90
37342;DHT22;58643;49.052;8.518;2023-04-03T09:06:26;10.70;99.90
37342;DHT22;58643;49.052;8.518;2023-04-03T09:11:54;9.60;99.90
37342;DHT22;58643;49.052;8.518;2023-04-03T09:17:57;10.00;99.90
37342;DHT22;58643;49.052;8.518;2023-04-03T09:22:59;10.30;99.90
37342;DHT22;58643;49.052;8.518;2023-04-03T09:25:32;10.60;99.90
37342;DHT22;58643;49.052;8.518;2023-04-03T09:27:59;12.20;99.40
37342;DHT22;58643;49.052;8.518;2023-04-03T09:30:25;12.40;96.20
37342;DHT22;58643;49.052;8.518;2023-04-03T09:32:55;12.40;95.50
37342;DHT22;58643;49.052;8.518;2023-04-03T09:35:25;13.10;94.40
37342;DHT22;58643;49.052;8.518;2023-04-03T09:37:52;12.50;95.10
37342;DHT22;58643;49.052;8.518;2023-04-03T09:40:36;12.60;94.20
37342;DHT22;58643;49.052;8.518;2023-04-03T09:45:48;15.30;83.90
37342;DHT22;58643;49.052;8.518;2023-04-03T09:53:37;12.10;92.00
37342;DHT22;58643;49.052;8.518;2023-04-03T09:58:43;15.90;75.20
37342;DHT22;58643;49.052;8.518;2023-04-03T10:04:16;15.60;71.80
37342;DHT22;58643;49.052;8.518;2023-04-03T10:06:48;14.60;72.20
37342;DHT22;58643;49.052;8.518;2023-04-03T10:14:29;15.50;64.00
37342;DHT22;58643;49.052;8.518;2023-04-03T10:17:18;16.50;68.30
37342;DHT22;58643;49.052;8.518;2023-04-03T10:25:25;15.60;62.20
37342;DHT22;58643;49.052;8.518;2023-04-03T10:30:42;15.10;59.90
37342;DHT22;58643;49.052;8.518;2023-04-03T10:41:56;11.90;74.50
37342;DHT22;58643;49.052;8.518;2023-04-03T10:47:58;11.10;77.00
37342;DHT22;58643;49.052;8.518;2023-04-03T11:02:24;10.80;71.40
37342;DHT22;58643;49.052;8.518;2023-04-03T11:04:51;10.40;74.40
37342;DHT22;58643;49.052;8.518;2023-04-03T11:07:26;11.70;73.20
37342;DHT22;58643;49.052;8.518;2023-04-03T11:13:17;10.90;73.60
37342;DHT22;58643;49.052;8.518;2023-04-03T11:15:45;10.80;72.70
37342;DHT22;58643;49.052;8.518;2023-04-03T11:18:19;12.60;77.30
37342;DHT22;58643;49.052;8.518;2023-04-03T11:21:19;11.40;76.40
37342;DHT22;58643;49.052;8.518;2023-04-03T11:23:47;11.70;74.60
37342;DHT22;58643;49.052;8.518;2023-04-03T11:26:22;12.70;74.40
37342;DHT22;58643;49.052;8.518;2023-04-03T11:28:56;12.20;74.90
37342;DHT22;58643;49.052;8.518;2023-04-03T11:36:58;10.50;75.70
37342;DHT22;58643;49.052;8.518;2023-04-03T11:39:31;10.30;78.50
37342;DHT22;58643;49.052;8.518;2023-04-03T11:42:39;12.10;79.10
37342;DHT22;58643;49.052;8.518;2023-04-03T11:47:51;12.90;82.40
37342;DHT22;58643;49.052;8.518;2023-04-03T11:50:42;10.60;81.00
37342;DHT22;58643;49.052;8.518;2023-04-03T12:00:58;14.00;70.70
37342;DHT22;58643;49.052;8.518;2023-04-03T12:16:57;11.90;79.30
37342;DHT22;58643;49.052;8.518;2023-04-03T12:40:37;11.90;73.00
37342;DHT22;58643;49.052;8.518;2023-04-03T12:43:28;11.80;73.50
37342;DHT22;58643;49.052;8.518;2023-04-03T12:46:14;11.40;74.60
37342;DHT22;58643;49.052;8.518;2023-04-03T12:51:14;11.70;77.20
37342;DHT22;58643;49.052;8.518;2023-04-03T12:53:40;11.60;75.30
37342;DHT22;58643;49.052;8.518;2023-04-03T12:56:27;13.10;78.00
37342;DHT22;58643;49.052;8.518;2023-04-03T12:58:55;11.10;77.80
37342;DHT22;58643;49.052;8.518;2023-04-03T13:01:24;10.70;78.90
37342;DHT22;58643;49.052;8.518;2023-04-03T13:03:56;11.10;78.20
37342;DHT22;58643;49.052;8.518;2023-04-03T13:06:42;10.30;76.90
37342;DHT22;58643;49.052;8.518;2023-04-03T13:09:28;10.50;78.00
37342;DHT22;58643;49.052;8.518;2023-04-03T13:12:14;10.50;82.30
37342;DHT22;58643;49.052;8.518;2023-04-03T13:14:49;10.90;79.60
37342;DHT22;58643;49.052;8.518;2023-04-03T13:17:16;11.20;79.50
37342;DHT22;58643;49.052;8.518;2023-04-03T13:19:43;11.10;76.10
37342;DHT22;58643;49.052;8.518;2023-04-03T13:22:26;11.10;76.20
37342;DHT22;58643;49.052;8.518;2023-04-03T13:24:54;12.60;73.90
37342;DHT22;58643;49.052;8.518;2023-04-03T13:27:22;11.50;73.90
37342;DHT22;58643;49.052;8.518;2023-04-03T13:29:52;11.50;71.20
37342;DHT22;58643;49.052;8.518;2023-04-03T13:32:23;11.30;73.10
37342;DHT22;58643;49.052;8.518;2023-04-03T13:34:50;11.70;73.40
37342;DHT22;58643;49.052;8.518;2023-04-03T13:37:21;12.20;71.80
37342;DHT22;58643;49.052;8.518;2023-04-03T13:40:18;13.40;73.10
37342;DHT22;58643;49.052;8.518;2023-04-03T13:42:42;12.80;70.90
37342;DHT22;58643;49.052;8.518;2023-04-03T13:45:22;12.20;68.70
37342;DHT22;58643;49.052;8.518;2023-04-03T13:47:52;12.10;67.60
37342;DHT22;58643;49.052;8.518;2023-04-03T13:50:24;11.80;70.40
37342;DHT22;58643;49.052;8.518;2023-04-03T13:52:59;11.30;72.00
37342;DHT22;58643;49.052;8.518;2023-04-03T13:55:36;11.10;73.00
37342;DHT22;58643;49.052;8.518;2023-04-03T13:58:25;11.10;74.60
37342;DHT22;58643;49.052;8.518;2023-04-03T14:01:18;10.80;75.10
37342;DHT22;58643;49.052;8.518;2023-04-03T14:03:52;10.80;76.90
37342;DHT22;58643;49.052;8.518;2023-04-03T14:06:18;12.00;77.20
37342;DHT22;58643;49.052;8.518;2023-04-03T14:08:45;14.00;79.20
37342;DHT22;58643;49.052;8.518;2023-04-03T14:11:21;12.30;76.40
37342;DHT22;58643;49.052;8.518;2023-04-03T14:13:48;12.00;76.10
37342;DHT22;58643;49.052;8.518;2023-04-03T14:16:23;11.30;78.00
37342;DHT22;58643;49.052;8.518;2023-04-03T14:18:51;10.80;79.50
37342;DHT22;58643;49.052;8.518;2023-04-03T14:21:19;10.40;80.60
37342;DHT22;58643;49.052;8.518;2023-04-03T14:23:45;10.20;82.10
37342;DHT22;58643;49.052;8.518;2023-04-03T14:26:17;9.90;81.90
37342;DHT22;58643;49.052;8.518;2023-04-03T14:28:45;11.80;81.60
37342;DHT22;58643;49.052;8.518;2023-04-03T14:31:12;10.00;80.10
37342;DHT22;58643;49.052;8.518;2023-04-03T14:33:40;11.70;80.90
37342;DHT22;58643;49.052;8.518;2023-04-03T14:36:13;10.80;81.40
37342;DHT22;58643;49.052;8.518;2023-04-03T14:38:39;10.40;80.70
37342;DHT22;58643;49.052;8.518;2023-04-03T14:41:05;10.20;79.70
37342;DHT22;58643;49.052;8.518;2023-04-03T14:43:31;11.60;81.40
37342;DHT22;58643;49.052;8.518;2023-04-03T14:45:56;10.00;80.30
37342;DHT22;58643;49.052;8.518;2023-04-03T14:48:25;10.00;79.30
37342;DHT22;58643;49.052;8.518;2023-04-03T14:50:52;10.20;78.50
37342;DHT22;58643;49.052;8.518;2023-04-03T14:53:19;10.30;77.10
37342;DHT22;58643;49.052;8.518;2023-04-03T14:55:48;13.50;73.60
37342;DHT22;58643;49.052;8.518;2023-04-03T14:58:17;13.30;68.70
37342;DHT22;58643;49.052;8.518;2023-04-03T15:00:43;12.80;69.40
37342;DHT22;58643;49.052;8.518;2023-04-03T15:03:17;11.60;71.20
37342;DHT22;58643;49.052;8.518;2023-04-03T15:05:44;11.00;70.80
37342;DHT22;58643;49.052;8.518;2023-04-03T15:08:22;12.50;76.30
37342;DHT22;58643;49.052;8.518;2023-04-03T15:10:49;10.10;73.60
37342;DHT22;58643;49.052;8.518;2023-04-03T15:13:15;12.50;74.70
37342;DHT22;58643;49.052;8.518;2023-04-03T15:15:41;12.00;71.00
37342;DHT22;58643;49.052;8.518;2023-04-03T15:18:11;12.80;71.00
37342;DHT22;58643;49.052;8.518;2023-04-03T15:20:38;13.80;66.50
37342;DHT22;58643;49.052;8.518;2023-04-03T15:23:04;13.90;69.10
37342;DHT22;58643;49.052;8.518;2023-04-03T15:25:31;12.10;68.70
37342;DHT22;58643;49.052;8.518;2023-04-03T15:27:57;11.00;70.70
37342;DHT22;58643;49.052;8.518;2023-04-03T15:30:24;10.40;74.30
37342;DHT22;58643;49.052;8.518;2023-04-03T15:32:49;9.90;75.70
37342;DHT22;58643;49.052;8.518;2023-04-03T15:35:15;9.70;75.60
37342;DHT22;58643;49.052;8.518;2023-04-03T15:37:41;10.40;76.80
37342;DHT22;58643;49.052;8.518;2023-04-03T15:40:08;13.00;71.90
37342;DHT22;58643;49.052;8.518;2023-04-03T15:42:33;14.30;67.50
37342;DHT22;58643;49.052;8.518;2023-04-03T15:44:59;15.80;63.00
37342;DHT22;58643;49.052;8.518;2023-04-03T15:47:26;17.50;59.20
37342;DHT22;58643;49.052;8.518;2023-04-03T15:49:53;18.70;57.10
37342;DHT22;58643;49.052;8.518;2023-04-03T15:52:19;17.10;55.40
37342;DHT22;58643;49.052;8.518;2023-04-03T15:54:45;16.40;60.90
37342;DHT22;58643;49.052;8.518;2023-04-03T15:57:11;12.50;64.60
37342;DHT22;58643;49.052;8.518;2023-04-03T15:59:36;11.40;65.90
37342;DHT22;58643;49.052;8.518;2023-04-03T16:02:04;10.60;70.10
37342;DHT22;58643;49.052;8.518;2023-04-03T16:04:30;11.50;68.30
37342;DHT22;58643;49.052;8.518;2023-04-03T16:06:56;14.70;64.60
37342;DHT22;58643;49.052;8.518;2023-04-03T16:09:22;15.80;63.50
37342;DHT22;58643;49.052;8.518;2023-04-03T16:11:47;14.00;60.20
37342;DHT22;58643;49.052;8.518;2023-04-03T16:14:13;15.10;60.30
37342;DHT22;58643;49.052;8.518;2023-04-03T16:16:39;16.10;59.40
37342;DHT22;58643;49.052;8.518;2023-04-03T16:19:05;15.10;60.20
37342;DHT22;58643;49.052;8.518;2023-04-03T16:21:32;17.20;61.00
37342;DHT22;58643;49.052;8.518;2023-04-03T16:23:58;13.90;60.10
37342;DHT22;58643;49.052;8.518;2023-04-03T16:26:24;13.20;61.50
37342;DHT22;58643;49.052;8.518;2023-04-03T16:28:51;13.30;60.90
37342;DHT22;58643;49.052;8.518;2023-04-03T16:31:16;13.30;61.00
37342;DHT22;58643;49.052;8.518;2023-04-03T16:33:42;14.10;61.00
37342;DHT22;58643;49.052;8.518;2023-04-03T16:36:08;14.70;60.30
37342;DHT22;58643;49.052;8.518;2023-04-03T16:38:33;15.20;58.80
37342;DHT22;58643;49.052;8.518;2023-04-03T16:40:59;15.20;59.60
37342;DHT22;58643;49.052;8.518;2023-04-03T16:43:30;16.30;59.90
37342;DHT22;58643;49.052;8.518;2023-04-03T16:45:56;16.10;59.60
37342;DHT22;58643;49.052;8.518;2023-04-03T16:48:21;16.30;59.90
37342;DHT22;58643;49.052;8.518;2023-04-03T16:50:48;15.60;60.00
37342;DHT22;58643;49.052;8.518;2023-04-03T16:53:15;13.60;59.60
37342;DHT22;58643;49.052;8.518;2023-04-03T16:55:41;14.90;61.70
37342;DHT22;58643;49.052;8.518;2023-04-03T16:58:07;14.90;60.80
37342;DHT22;58643;49.052;8.518;2023-04-03T17:00:32;13.40;61.60
37342;DHT22;58643;49.052;8.518;2023-04-03T17:02:59;14.80;61.80
37342;DHT22;58643;49.052;8.518;2023-04-03T17:05:25;14.80;61.80
37342;DHT22;58643;49.052;8.518;2023-04-03T17:07:50;12.70;63.00
37342;DHT22;58643;49.052;8.518;2023-04-03T17:10:16;12.80;62.80
37342;DHT22;58643;49.052;8.518;2023-04-03T17:12:42;12.60;61.90
37342;DHT22;58643;49.052;8.518;2023-04-03T17:15:08;12.70;62.40
37342;DHT22;58643;49.052;8.518;2023-04-03T17:17:34;12.90;62.10
37342;DHT22;58643;49.052;8.518;2023-04-03T17:20:00;14.40;63.20
37342;DHT22;58643;49.052;8.518;2023-04-03T17:22:27;11.90;63.20
37342;DHT22;58643;49.052;8.518;2023-04-03T17:24:53;14.60;65.10
37342;DHT22;58643;49.052;8.518;2023-04-03T17:27:18;11.70;65.30
37342;DHT22;58643;49.052;8.518;2023-04-03T17:29:44;11.60;65.00
37342;DHT22;58643;49.052;8.518;2023-04-03T17:32:10;12.40;65.90
37342;DHT22;58643;49.052;8.518;2023-04-03T17:34:35;10.90;66.90
37342;DHT22;58643;49.052;8.518;2023-04-03T17:37:01;10.50;66.70
37342;DHT22;58643;49.052;8.518;2023-04-03T17:39:27;9.90;69.30
37342;DHT22;58643;49.052;8.518;2023-04-03T17:41:53;9.30;69.80
37342;DHT22;58643;49.052;8.518;2023-04-03T17:44:20;8.60;71.70
37342;DHT22;58643;49.052;8.518;2023-04-03T17:46:45;8.20;73.80
37342;DHT22;58643;49.052;8.518;2023-04-03T17:49:11;7.90;73.60
37342;DHT22;58643;49.052;8.518;2023-04-03T17:51:40;7.80;75.60
37342;DHT22;58643;49.052;8.518;2023-04-03T17:54:06;7.50;76.50
37342;DHT22;58643;49.052;8.518;2023-04-03T17:56:31;7.30;76.80